createdAt,value
2023-11-05T00:02:28.735Z,94449.69
2023-11-05T00:05:00.141Z,94464.25
2023-11-05T00:07:30.681Z,94460.22
2023-11-05T00:10:05.540Z,94455.03
2023-11-05T00:12:36.393Z,94471.28
2023-11-05T00:15:07.606Z,94465.75
2023-11-05T00:17:38.350Z,94464.44
2023-11-05T00:20:11.800Z,94482.91
2023-11-05T00:22:42.393Z,94472.41
2023-11-05T00:25:15.759Z,94475.34
2023-11-05T00:27:46.415Z,94473.84
2023-11-05T00:30:17.181Z,94487.69
2023-11-05T00:32:47.910Z,94488.44
2023-11-05T00:35:18.737Z,94477.94
2023-11-05T00:37:49.397Z,94473.16
2023-11-05T00:40:22.938Z,94488.28
2023-11-05T00:42:53.998Z,94482.53
2023-11-05T00:45:24.224Z,94496.41
2023-11-05T00:47:54.789Z,94472.03
2023-11-05T00:50:26.591Z,94493.06
2023-11-05T00:52:57.272Z,94499.16
2023-11-05T00:55:32.186Z,94467.59
2023-11-05T00:58:03.347Z,94453.94
2023-11-05T01:00:34.364Z,94456.53
2023-11-05T01:03:05.068Z,94458.19
2023-11-05T01:05:36.044Z,94462.06
2023-11-05T01:08:07.622Z,94466.66
2023-11-05T01:10:40.947Z,94460.38
2023-11-05T01:13:11.642Z,94452.06
2023-11-05T01:15:42.542Z,94458.00
2023-11-05T01:18:13.442Z,94455.97
2023-11-05T01:20:44.379Z,94452.63
2023-11-05T01:23:14.906Z,94450.41
2023-11-05T01:25:48.678Z,94457.25
2023-11-05T01:28:19.349Z,94449.88
2023-11-05T01:30:50.812Z,94451.00
2023-11-05T01:33:23.076Z,94435.31
2023-11-05T01:35:55.028Z,94433.63
2023-11-05T01:38:25.729Z,94435.84
2023-11-05T01:40:58.896Z,94428.47
2023-11-05T01:43:30.400Z,94430.50
2023-11-05T01:46:01.587Z,94424.41
2023-11-05T01:48:33.971Z,94414.78
2023-11-05T01:51:16.284Z,94417.53
2023-11-05T01:53:50.964Z,94419.97
2023-11-05T01:56:26.704Z,94406.88
2023-11-05T01:58:58.586Z,94400.03
2023-11-05T02:01:29.858Z,94398.38
2023-11-05T02:04:01.793Z,94407.06
2023-11-05T02:06:32.468Z,94405.03
2023-11-05T02:09:04.057Z,94398.16
2023-11-05T02:11:37.799Z,94378.28
2023-11-05T02:14:09.025Z,94379.72
2023-11-05T02:16:39.694Z,94384.16
2023-11-05T02:19:10.767Z,94378.84
2023-11-05T02:21:46.528Z,94384.72
2023-11-05T02:24:19.990Z,94385.66
2023-11-05T02:27:00.538Z,94385.31
2023-11-05T02:29:31.502Z,94383.09
2023-11-05T02:32:02.071Z,94397.31
2023-11-05T02:34:32.784Z,94401.56
2023-11-05T02:37:04.538Z,94409.69
2023-11-05T02:39:37.719Z,94408.94
2023-11-05T02:42:09.125Z,94415.41
2023-11-05T02:44:40.454Z,94421.88
2023-11-05T02:47:11.896Z,94427.03
2023-11-05T02:49:43.177Z,94417.44
2023-11-05T02:52:13.923Z,94423.34
2023-11-05T02:54:47.413Z,94411.34
2023-11-05T02:57:22.205Z,94418.19
2023-11-05T02:59:53.360Z,94408.41
2023-11-05T03:02:23.950Z,94413.75
2023-11-05T03:04:54.626Z,94422.06
2023-11-05T03:07:25.302Z,94408.63
2023-11-05T03:09:58.631Z,94413.41
2023-11-05T03:12:30.418Z,94408.22
2023-11-05T03:15:00.916Z,94408.97
2023-11-05T03:17:31.608Z,94401.75
2023-11-05T03:20:02.272Z,94396.81
2023-11-05T03:22:32.953Z,94396.44
2023-11-05T03:25:06.673Z,94400.66
2023-11-05T03:27:37.298Z,94397.72
2023-11-05T03:30:12.059Z,94410.81
2023-11-05T03:32:43.134Z,94411.19
2023-11-05T03:35:13.906Z,94405.81
2023-11-05T03:37:44.476Z,94398.63
2023-11-05T03:40:18.425Z,94399.94
2023-11-05T03:42:49.006Z,94406.75
2023-11-05T03:45:20.018Z,94393.09
2023-11-05T03:47:50.648Z,94390.16
2023-11-05T03:50:21.264Z,94388.28
2023-11-05T03:52:52.810Z,94382.03
2023-11-05T03:55:26.069Z,94389.97
2023-11-05T03:57:56.608Z,94380.94
2023-11-05T04:00:28.325Z,94386.44
2023-11-05T04:02:59.635Z,94384.97
2023-11-05T04:05:30.946Z,94375.56
2023-11-05T04:08:01.715Z,94365.59
2023-11-05T04:10:34.937Z,94376.84
2023-11-05T04:13:05.544Z,94354.31
2023-11-05T04:15:36.188Z,94350.28
2023-11-05T04:18:06.895Z,94345.53
2023-11-05T04:20:37.545Z,94353.06
2023-11-05T04:23:08.353Z,94354.72
2023-11-05T04:25:41.571Z,94349.19
2023-11-05T04:28:12.278Z,94337.03
2023-11-05T04:30:42.861Z,94331.50
2023-11-05T04:33:13.490Z,94332.25
2023-11-05T04:35:44.306Z,94325.03
2023-11-05T04:38:14.859Z,94316.94
2023-11-05T04:40:48.101Z,94316.03
2023-11-05T04:43:19.169Z,94306.44
2023-11-05T04:45:49.424Z,94311.97
2023-11-05T04:48:20.003Z,94307.19
2023-11-05T04:50:50.686Z,94301.66
2023-11-05T04:53:21.345Z,94304.97
2023-11-05T04:55:54.577Z,94319.38
2023-11-05T04:58:25.264Z,94326.56
2023-11-05T05:00:56.289Z,94317.72
2023-11-05T05:03:26.897Z,94309.22
2023-11-05T05:05:57.652Z,94305.19
2023-11-05T05:08:28.217Z,94298.16
2023-11-05T05:11:01.596Z,94299.66
2023-11-05T05:13:33.095Z,94292.66
2023-11-05T05:16:04.601Z,94288.63
2023-11-05T05:18:35.230Z,94282.50
2023-11-05T05:21:05.945Z,94281.56
2023-11-05T05:23:36.537Z,94279.56
2023-11-05T05:26:10.553Z,94280.28
2023-11-05T05:28:41.091Z,94288.97
2023-11-05T05:31:11.755Z,94281.56
2023-11-05T05:33:42.311Z,94278.81
2023-11-05T05:36:14.339Z,94284.88
2023-11-05T05:38:44.884Z,94275.69
2023-11-05T05:41:18.260Z,94282.69
2023-11-05T05:43:48.923Z,94275.50
2023-11-05T05:46:19.639Z,94282.84
2023-11-05T05:48:50.389Z,94272.34
2023-11-05T05:51:21.419Z,94279.34
2023-11-05T05:53:51.623Z,94280.09
2023-11-05T05:56:25.227Z,94273.28
2023-11-05T05:58:55.803Z,94278.81
2023-11-05T06:01:26.580Z,94285.28
2023-11-05T06:03:57.564Z,94281.22
2023-11-05T06:06:28.278Z,94277.38
2023-11-05T06:08:58.885Z,94277.34
2023-11-05T06:11:32.086Z,94269.59
2023-11-05T06:14:02.593Z,94255.25
2023-11-05T06:16:33.324Z,94257.28
2023-11-05T06:19:03.953Z,94253.97
2023-11-05T06:21:34.564Z,94248.22
2023-11-05T06:24:06.479Z,94245.44
2023-11-05T06:26:39.711Z,94245.25
2023-11-05T06:29:10.500Z,94236.97
2023-11-05T06:31:41.683Z,94240.97
2023-11-05T06:34:12.372Z,94247.63
2023-11-05T06:37:01.341Z,94252.41
2023-11-05T06:39:32.527Z,94253.16
2023-11-05T06:42:05.764Z,94267.34
2023-11-05T06:44:36.537Z,94261.41
2023-11-05T06:47:07.467Z,94272.13
2023-11-05T06:49:38.057Z,94275.81
2023-11-05T06:52:09.744Z,94266.56
2023-11-05T06:54:41.234Z,94273.19
2023-11-05T06:57:14.853Z,94271.91
2023-11-05T06:59:45.433Z,94265.09
2023-11-05T07:02:16.198Z,94261.94
2023-11-05T07:04:46.947Z,94254.56
2023-11-05T07:07:19.614Z,94250.84
2023-11-05T07:09:52.496Z,94264.88
2023-11-05T07:12:25.793Z,94266.31
2023-11-05T07:14:56.451Z,94273.50
2023-11-05T07:17:27.107Z,94268.44
2023-11-05T07:19:57.717Z,94282.59
2023-11-05T07:22:28.245Z,94272.38
2023-11-05T07:24:58.834Z,94281.78
2023-11-05T07:27:32.043Z,94285.47
2023-11-05T07:30:02.644Z,94284.69
2023-11-05T07:32:33.496Z,94276.72
2023-11-05T07:35:04.071Z,94291.84
2023-11-05T07:37:34.807Z,94295.72
2023-11-05T07:40:07.769Z,94302.75
2023-11-05T07:42:42.451Z,94277.06
2023-11-05T07:45:14.548Z,94278.66
2023-11-05T07:47:44.801Z,94280.88
2023-11-05T07:50:17.213Z,94270.50
2023-11-05T07:52:47.749Z,94283.41
2023-11-05T07:55:18.525Z,94276.50
2023-11-05T07:57:51.777Z,94270.34
2023-11-05T08:00:23.247Z,94271.94
2023-11-05T08:02:53.913Z,94266.19
2023-11-05T08:05:24.676Z,94263.88
2023-11-05T08:07:55.236Z,94273.00
2023-11-05T08:10:25.847Z,94276.31
2023-11-05T08:12:59.243Z,94271.84
2023-11-05T08:15:29.807Z,94276.16
2023-11-05T08:18:00.461Z,94274.63
2023-11-05T08:20:31.030Z,94270.03
2023-11-05T08:23:01.726Z,94270.53
2023-11-05T08:25:32.318Z,94269.97
2023-11-05T08:28:12.588Z,94286.44
2023-11-05T08:30:50.760Z,94288.59
2023-11-05T08:33:21.498Z,94281.16
2023-11-05T08:35:53.123Z,94284.44
2023-11-05T08:38:23.822Z,94280.38
2023-11-05T08:40:54.490Z,94284.44
2023-11-05T08:43:29.381Z,94280.72
2023-11-05T08:46:01.486Z,94282.16
2023-11-05T08:48:33.556Z,94284.00
2023-11-05T08:51:04.198Z,94279.50
2023-11-05T08:53:34.806Z,94286.59
2023-11-05T08:56:05.594Z,94275.50
2023-11-05T08:58:38.805Z,94279.97
2023-11-05T09:01:09.526Z,94278.50
2023-11-05T09:03:40.264Z,94277.72
2023-11-05T09:06:11.203Z,94283.50
2023-11-05T09:08:42.522Z,94281.09
2023-11-05T09:11:17.750Z,94296.63
2023-11-05T09:14:08.071Z,94288.69
2023-11-05T09:16:46.300Z,94302.66
2023-11-05T09:19:22.384Z,94285.34
2023-11-05T09:21:57.002Z,94279.75
2023-11-05T09:24:41.306Z,94290.19
2023-11-05T09:27:12.568Z,94287.31
2023-11-05T09:29:47.777Z,94295.63
2023-11-05T09:32:18.729Z,94288.00
2023-11-05T09:34:49.581Z,94306.63
2023-11-05T09:37:22.632Z,94290.16
2023-11-05T09:39:55.902Z,94287.69
2023-11-05T09:42:29.565Z,94292.44
2023-11-05T09:45:13.103Z,94292.03
2023-11-05T09:47:47.534Z,94298.47
2023-11-05T09:50:18.289Z,94312.03
2023-11-05T09:52:49.415Z,94287.13
2023-11-05T09:55:26.535Z,94294.72
2023-11-05T09:58:00.391Z,94301.75
2023-11-05T10:00:36.996Z,94287.53
2023-11-05T10:03:10.139Z,94290.19
2023-11-05T10:05:45.846Z,94283.50
2023-11-05T10:08:18.059Z,94287.63
2023-11-05T10:10:53.551Z,94273.59
2023-11-05T10:13:27.524Z,94284.56
2023-11-05T10:16:05.581Z,94298.97
2023-11-05T10:18:40.416Z,94277.28
2023-11-05T10:21:12.642Z,94277.81
2023-11-05T10:23:56.570Z,94297.84
2023-11-05T10:26:32.175Z,94277.38
2023-11-05T10:29:02.840Z,94276.63
2023-11-05T10:31:37.899Z,94289.13
2023-11-05T10:34:11.484Z,94287.06
2023-11-05T10:36:42.158Z,94286.78
2023-11-05T10:39:13.051Z,94288.19
2023-11-05T10:41:43.920Z,94300.75
2023-11-05T10:44:15.643Z,94304.41
2023-11-05T10:46:55.720Z,94293.56
2023-11-05T10:49:27.932Z,94297.31
2023-11-05T10:51:58.863Z,94298.34
2023-11-05T10:54:29.334Z,94288.22
2023-11-05T10:57:00.055Z,94293.06
2023-11-05T10:59:39.579Z,94311.13
2023-11-05T11:02:17.621Z,94303.50
2023-11-05T11:04:48.334Z,94305.66
2023-11-05T11:07:19.146Z,94315.25
2023-11-05T11:09:50.855Z,94339.88
2023-11-05T11:12:34.859Z,94318.84
2023-11-05T11:15:08.230Z,94324.56
2023-11-05T11:17:44.153Z,94346.25
2023-11-05T11:20:17.559Z,94352.38
2023-11-05T11:22:50.312Z,94359.16
2023-11-05T11:25:21.201Z,94374.38
2023-11-05T11:27:53.555Z,94363.25
2023-11-05T11:30:24.306Z,94367.59
2023-11-05T11:32:58.034Z,94386.19
2023-11-05T11:35:30.029Z,94390.84
2023-11-05T11:38:02.399Z,94402.81
2023-11-05T11:40:33.034Z,94390.78
2023-11-05T11:43:04.007Z,94399.72
2023-11-05T11:45:34.913Z,94396.03
2023-11-05T11:48:13.328Z,94422.75
2023-11-05T11:50:54.774Z,94396.53
2023-11-05T11:53:32.384Z,94411.59
2023-11-05T11:56:04.354Z,94421.91
2023-11-05T11:58:41.092Z,94416.78
2023-11-05T12:01:17.151Z,94413.38
2023-11-05T12:03:50.825Z,94408.88
2023-11-05T12:06:23.138Z,94417.69
2023-11-05T12:08:53.970Z,94421.56
2023-11-05T12:11:26.212Z,94407.94
2023-11-05T12:13:59.189Z,94424.56
2023-11-05T12:16:30.116Z,94423.41
2023-11-05T12:19:04.624Z,94432.13
2023-11-05T12:21:36.095Z,94412.84
2023-11-05T12:24:08.588Z,94426.19
2023-11-05T12:26:44.086Z,94430.78
2023-11-05T12:29:15.788Z,94419.47
2023-11-05T12:31:47.796Z,94437.31
2023-11-05T12:34:22.622Z,94434.88
2023-11-05T12:36:54.275Z,94425.75
2023-11-05T12:39:24.778Z,94449.28
2023-11-05T12:41:55.455Z,94444.22
2023-11-05T12:44:26.068Z,94438.81
2023-11-05T12:47:02.674Z,94438.41
2023-11-05T12:49:36.096Z,94447.63
2023-11-05T12:52:07.148Z,94452.00
2023-11-05T12:54:37.288Z,94457.72
2023-11-05T12:57:10.549Z,94443.53
2023-11-05T12:59:42.853Z,94441.25
2023-11-05T13:02:13.604Z,94455.66
2023-11-05T13:04:47.056Z,94470.13
2023-11-05T13:07:18.067Z,94463.97
2023-11-05T13:09:48.798Z,94438.94
2023-11-05T13:12:19.397Z,94453.28
2023-11-05T13:14:49.943Z,94465.69
2023-11-05T13:17:21.413Z,94466.19
2023-11-05T13:19:57.603Z,94482.59
2023-11-05T13:22:28.180Z,94457.00
2023-11-05T13:25:01.563Z,94476.16
2023-11-05T13:27:32.266Z,94477.69
2023-11-05T13:30:05.019Z,94476.75
2023-11-05T13:32:36.386Z,94474.16
2023-11-05T13:35:11.644Z,94484.38
2023-11-05T13:37:42.784Z,94511.06
2023-11-05T13:40:14.229Z,94502.56
2023-11-05T13:42:44.815Z,94498.25
2023-11-05T13:45:15.466Z,94512.75
2023-11-05T13:47:46.089Z,94504.81
2023-11-05T13:50:19.562Z,94526.50
2023-11-05T13:52:50.144Z,94513.13
2023-11-05T13:55:20.802Z,94535.16
2023-11-05T13:57:51.458Z,94517.16
2023-11-05T14:00:22.327Z,94533.88
2023-11-05T14:02:53.577Z,94526.34
2023-11-05T14:05:26.833Z,94542.00
2023-11-05T14:07:57.470Z,94550.03
2023-11-05T14:10:28.364Z,94556.22
2023-11-05T14:12:59.183Z,94552.47
2023-11-05T14:15:29.951Z,94551.22
2023-11-05T14:18:00.901Z,94567.09
2023-11-05T14:20:38.103Z,94562.38
2023-11-05T14:23:13.884Z,94573.19
2023-11-05T14:25:51.231Z,94567.66
2023-11-05T14:28:23.383Z,94574.72
2023-11-05T14:30:55.664Z,94581.69
2023-11-05T14:33:29.635Z,94589.66
2023-11-05T14:36:04.176Z,94586.16
2023-11-05T14:38:49.327Z,94612.06
2023-11-05T14:41:25.470Z,94613.25
2023-11-05T14:43:56.916Z,94602.16
2023-11-05T14:46:28.926Z,94617.44
2023-11-05T14:49:16.191Z,94625.84
2023-11-05T14:51:49.847Z,94633.06
2023-11-05T14:54:24.210Z,94622.19
2023-11-05T14:56:55.173Z,94640.50
2023-11-05T14:59:25.629Z,94637.75
2023-11-05T15:01:57.839Z,94632.94
2023-11-05T15:04:33.495Z,94638.81
2023-11-05T15:07:08.563Z,94649.38
2023-11-05T15:09:40.745Z,94656.41
2023-11-05T15:12:21.266Z,94667.53
2023-11-05T15:14:55.829Z,94655.50
2023-11-05T15:17:27.037Z,94656.06
2023-11-05T15:19:58.022Z,94667.72
2023-11-05T15:22:31.815Z,94677.34
2023-11-05T15:25:02.837Z,94675.69
2023-11-05T15:27:33.183Z,94689.53
2023-11-05T15:30:10.266Z,94691.03
2023-11-05T15:32:43.186Z,94680.09
2023-11-05T15:35:14.147Z,94702.13
2023-11-05T15:37:48.124Z,94690.09
2023-11-05T15:40:20.601Z,94705.63
2023-11-05T15:42:52.037Z,94703.22
2023-11-05T15:45:23.651Z,94704.72
2023-11-05T15:47:54.435Z,94705.97
2023-11-05T15:50:26.170Z,94704.50
2023-11-05T15:52:59.633Z,94716.69
2023-11-05T15:55:30.606Z,94729.44
2023-11-05T15:58:01.498Z,94732.00
2023-11-05T16:00:33.535Z,94727.59
2023-11-05T16:03:04.614Z,94739.78
2023-11-05T16:05:35.412Z,94747.56
2023-11-05T16:08:08.879Z,94747.75
2023-11-05T16:10:39.503Z,94753.81
2023-11-05T16:13:10.506Z,94748.47
2023-11-05T16:15:40.948Z,94750.25
2023-11-05T16:18:14.581Z,94763.56
2023-11-05T16:20:45.997Z,94766.28
2023-11-05T16:23:18.909Z,94771.81
2023-11-05T16:25:49.982Z,94775.88
2023-11-05T16:28:26.751Z,94778.06
2023-11-05T16:30:57.382Z,94778.81
2023-11-05T16:33:28.626Z,94782.88
2023-11-05T16:36:02.495Z,94785.84
2023-11-05T16:38:35.926Z,94805.38
2023-11-05T16:41:07.291Z,94800.59
2023-11-05T16:43:38.837Z,94809.28
2023-11-05T16:46:09.676Z,94812.25
2023-11-05T16:48:40.381Z,94819.97
2023-11-05T16:51:11.423Z,94813.91
2023-11-05T16:53:44.876Z,94826.47
2023-11-05T16:56:15.684Z,94835.69
2023-11-05T16:58:49.433Z,94841.97
2023-11-05T17:01:22.286Z,94843.25
2023-11-05T17:03:52.882Z,94842.13
2023-11-05T17:06:23.488Z,94862.47
2023-11-05T17:08:56.968Z,94854.53
2023-11-05T17:11:27.822Z,94862.97
2023-11-05T17:14:00.451Z,94876.63
2023-11-05T17:16:31.897Z,94876.81
2023-11-05T17:19:02.738Z,94880.53
2023-11-05T17:21:33.708Z,94898.78
2023-11-05T17:24:07.195Z,94904.09
2023-11-05T17:26:38.607Z,94905.00
2023-11-05T17:29:09.581Z,94905.00
2023-11-05T17:31:40.775Z,94910.34
2023-11-05T17:34:11.737Z,94917.50
2023-11-05T17:36:42.982Z,94927.84
2023-11-05T17:39:16.417Z,94936.75
2023-11-05T17:41:47.158Z,94933.22
2023-11-05T17:44:18.195Z,94950.84
2023-11-05T17:46:48.678Z,94959.00
2023-11-05T17:49:19.391Z,94972.69
2023-11-05T17:51:50.391Z,94969.72
2023-11-05T17:54:25.613Z,94967.03
2023-11-05T17:56:57.798Z,94974.59
2023-11-05T17:59:29.006Z,94978.78
2023-11-05T18:01:59.485Z,94984.09
2023-11-05T18:04:30.490Z,94985.59
2023-11-05T18:07:01.122Z,94997.22
2023-11-05T18:09:34.526Z,95000.69
2023-11-05T18:12:06.154Z,95011.75
2023-11-05T18:14:36.998Z,95014.31
2023-11-05T18:17:08.362Z,95021.53
2023-11-05T18:19:39.203Z,95038.16
2023-11-05T18:22:11.394Z,95041.88
2023-11-05T18:24:45.036Z,95039.44
2023-11-05T18:27:16.152Z,95057.53
2023-11-05T18:29:46.983Z,95051.25
2023-11-05T18:32:18.756Z,95057.19
2023-11-05T18:34:49.550Z,95071.59
2023-11-05T18:37:20.405Z,95067.19
2023-11-05T18:39:54.664Z,95087.94
2023-11-05T18:42:25.694Z,95091.78
2023-11-05T18:44:56.295Z,95105.84
2023-11-05T18:47:27.671Z,95108.09
2023-11-05T18:49:58.875Z,95120.38
2023-11-05T18:52:30.064Z,95112.31
2023-11-05T18:55:04.978Z,95123.38
2023-11-05T18:57:36.357Z,95120.28
2023-11-05T19:00:09.746Z,95129.53
2023-11-05T19:02:41.567Z,95140.00
2023-11-05T19:05:12.972Z,95140.34
2023-11-05T19:07:44.192Z,95143.97
2023-11-05T19:10:17.699Z,95148.97
2023-11-05T19:12:48.640Z,95159.84
2023-11-05T19:15:19.669Z,95161.47
2023-11-05T19:17:50.234Z,95168.59
2023-11-05T19:20:20.996Z,95181.59
2023-11-05T19:22:51.879Z,95179.88
2023-11-05T19:25:25.560Z,95209.19
2023-11-05T19:27:56.401Z,95191.59
2023-11-05T19:30:27.342Z,95210.31
2023-11-05T19:33:00.021Z,95211.81
2023-11-05T19:35:31.229Z,95211.16
2023-11-05T19:38:02.289Z,95221.72
2023-11-05T19:40:35.800Z,95228.84
2023-11-05T19:43:06.745Z,95227.25
2023-11-05T19:45:37.572Z,95240.63
2023-11-05T19:48:10.258Z,95247.75
2023-11-05T19:50:41.803Z,95253.28
2023-11-05T19:53:15.055Z,95261.38
2023-11-05T19:55:50.303Z,95273.97
2023-11-05T19:58:21.029Z,95273.28
2023-11-05T20:00:52.489Z,95286.72
2023-11-05T20:03:23.422Z,95295.78
2023-11-05T20:05:54.513Z,95300.97
2023-11-05T20:08:24.941Z,95321.56
2023-11-05T20:10:58.685Z,95329.53
2023-11-05T20:13:29.936Z,95335.50
2023-11-05T20:16:00.910Z,95341.91
2023-11-05T20:18:31.996Z,95361.63
2023-11-05T20:21:02.273Z,95367.38
2023-11-05T20:23:34.046Z,95372.38
2023-11-05T20:26:08.113Z,95386.56
2023-11-05T20:28:41.403Z,95375.56
2023-11-05T20:31:14.504Z,95391.44
2023-11-05T20:33:45.300Z,95403.25
2023-11-05T20:36:16.567Z,95409.84
2023-11-05T20:38:47.431Z,95427.78
2023-11-05T20:41:20.964Z,95423.69
2023-11-05T20:43:53.053Z,95432.56
2023-11-05T20:46:24.154Z,95429.69
2023-11-05T20:48:55.572Z,95446.53
2023-11-05T20:51:27.478Z,95454.16
2023-11-05T20:53:58.454Z,95460.44
2023-11-05T20:56:32.107Z,95464.72
2023-11-05T20:59:04.539Z,95456.81
2023-11-05T21:01:35.606Z,95475.19
2023-11-05T21:04:09.073Z,95474.44
2023-11-05T21:06:40.182Z,95501.47
2023-11-05T21:09:10.724Z,95484.72
2023-11-05T21:11:46.030Z,95497.63
2023-11-05T21:14:16.890Z,95488.56
2023-11-05T21:16:47.803Z,95505.72
2023-11-05T21:19:19.006Z,95515.75
2023-11-05T21:21:50.139Z,95512.22
2023-11-05T21:24:20.442Z,95519.03
2023-11-05T21:26:53.529Z,95534.16
2023-11-05T21:29:24.155Z,95538.19
2023-11-05T21:31:55.193Z,95537.69
2023-11-05T21:34:25.417Z,95540.03
2023-11-05T21:36:56.026Z,95545.22
2023-11-05T21:39:26.604Z,95560.06
2023-11-05T21:42:00.215Z,95564.72
2023-11-05T21:44:30.789Z,95570.63
2023-11-05T21:47:02.645Z,95572.75
2023-11-05T21:49:33.288Z,95586.91
2023-11-05T21:52:03.894Z,95612.81
2023-11-05T21:54:34.677Z,95596.78
2023-11-05T21:57:09.428Z,95610.63
2023-11-05T21:59:39.985Z,95614.44
2023-11-05T22:02:11.839Z,95617.09
2023-11-05T22:04:42.590Z,95609.81
2023-11-05T22:07:13.535Z,95631.81
2023-11-05T22:09:44.007Z,95627.66
2023-11-05T22:12:17.236Z,95633.25
2023-11-05T22:14:47.929Z,95634.81
2023-11-05T22:17:18.638Z,95634.34
2023-11-05T22:19:49.124Z,95652.66
2023-11-05T22:22:19.678Z,95644.09
2023-11-05T22:24:50.211Z,95658.94
2023-11-05T22:27:23.667Z,95662.25
2023-11-05T22:29:54.206Z,95677.19
2023-11-05T22:32:25.025Z,95682.47
2023-11-05T22:34:56.404Z,95688.00
2023-11-05T22:37:27.786Z,95690.09
2023-11-05T22:39:58.318Z,95696.91
2023-11-05T22:42:31.586Z,95706.94
2023-11-05T22:45:02.129Z,95710.75
2023-11-05T22:47:32.755Z,95719.31
2023-11-05T22:50:04.028Z,95710.00
2023-11-05T22:52:34.666Z,95725.84
2023-11-05T22:55:05.738Z,95720.25
2023-11-05T22:57:38.579Z,95729.75
2023-11-05T23:00:18.063Z,95729.63
2023-11-05T23:02:48.891Z,95733.69
2023-11-05T23:05:19.617Z,95730.44
2023-11-05T23:07:50.263Z,95743.44
2023-11-05T23:10:21.186Z,95744.94
2023-11-05T23:12:54.332Z,95747.72
2023-11-05T23:15:24.970Z,95736.72
2023-11-05T23:17:55.683Z,95749.09
2023-11-05T23:20:26.250Z,95747.66
2023-11-05T23:22:56.808Z,95738.72
2023-11-05T23:25:35.058Z,95737.25
2023-11-05T23:28:11.800Z,95741.25
2023-11-05T23:30:42.646Z,95750.47
2023-11-05T23:33:13.322Z,95737.44
2023-11-05T23:35:43.847Z,95761.06
2023-11-05T23:38:15.615Z,95749.59
2023-11-05T23:40:46.226Z,95751.38
2023-11-05T23:43:19.610Z,95761.97
2023-11-05T23:45:50.360Z,95760.91
2023-11-05T23:48:21.614Z,95763.47
2023-11-05T23:50:52.263Z,95762.72
2023-11-05T23:53:22.986Z,95777.50
2023-11-05T23:55:54.905Z,95771.22
2023-11-05T23:58:28.143Z,95770.47
